createdAt,value
2023-01-21T00:02:12.545Z,90.40
2023-01-21T00:04:41.462Z,90.40
2023-01-21T00:07:10.590Z,90.70
2023-01-21T00:09:41.068Z,91.00
2023-01-21T00:12:10.131Z,91.30
2023-01-21T00:14:39.174Z,91.50
2023-01-21T00:17:08.101Z,91.50
2023-01-21T00:19:37.039Z,91.60
2023-01-21T00:22:06.680Z,91.80
2023-01-21T00:24:35.616Z,91.90
2023-01-21T00:27:06.132Z,92.00
2023-01-21T00:29:35.143Z,92.10
2023-01-21T00:32:04.087Z,92.20
2023-01-21T00:34:33.143Z,92.20
2023-01-21T00:37:02.228Z,92.20
2023-01-21T00:39:31.316Z,92.40
2023-01-21T00:42:00.384Z,92.90
2023-01-21T00:44:30.912Z,92.70
2023-01-21T00:46:59.946Z,92.80
2023-01-21T00:49:28.856Z,93.00
2023-01-21T00:51:57.859Z,93.00
2023-01-21T00:54:27.180Z,93.30
2023-01-21T00:56:56.480Z,93.60
2023-01-21T00:59:25.637Z,94.10
2023-01-21T01:01:56.512Z,94.10
2023-01-21T01:04:26.046Z,94.20
2023-01-21T01:06:54.890Z,94.30
2023-01-21T01:09:23.834Z,94.30
2023-01-21T01:11:53.145Z,94.30
2023-01-21T01:14:22.461Z,94.10
2023-01-21T01:16:51.722Z,94.20
2023-01-21T01:19:21.991Z,94.40
2023-01-21T01:21:51.307Z,94.40
2023-01-21T01:24:20.214Z,94.60
2023-01-21T01:26:49.222Z,95.10
2023-01-21T01:29:18.764Z,95.10
2023-01-21T01:31:47.898Z,95.10
2023-01-21T01:34:16.822Z,95.30
2023-01-21T01:36:48.229Z,95.50
2023-01-21T01:39:17.502Z,95.80
2023-01-21T01:41:46.443Z,96.00
2023-01-21T01:44:52.259Z,96.10
2023-01-21T01:47:22.725Z,96.20
2023-01-21T01:49:52.075Z,96.20
2023-01-21T01:52:24.186Z,96.10
2023-01-21T01:54:57.354Z,96.00
2023-01-21T01:57:33.220Z,96.00
2023-01-21T02:00:04.643Z,96.00
2023-01-21T02:02:41.512Z,95.90
2023-01-21T02:05:12.587Z,95.80
2023-01-21T02:07:45.752Z,95.90
2023-01-21T02:10:16.623Z,96.00
2023-01-21T02:12:46.142Z,96.20
2023-01-21T02:15:15.111Z,96.20
2023-01-21T02:17:58.461Z,96.20
2023-01-21T02:21:21.066Z,96.30
2023-01-21T02:24:11.432Z,96.40
2023-01-21T02:27:29.972Z,96.50
2023-01-21T02:30:29.860Z,96.60
2023-01-21T02:33:33.117Z,96.80
2023-01-21T02:36:13.002Z,96.80
2023-01-21T02:38:48.452Z,97.10
2023-01-21T02:41:28.402Z,97.30
2023-01-21T02:44:08.055Z,97.70
2023-01-21T02:46:44.384Z,98.00
2023-01-21T02:49:21.347Z,98.30
2023-01-21T02:51:50.668Z,98.50
2023-01-21T02:54:50.767Z,98.60
2023-01-21T02:57:31.127Z,98.80
2023-01-21T03:00:02.370Z,98.60
2023-01-21T03:02:48.204Z,98.70
2023-01-21T03:05:26.423Z,98.90
2023-01-21T03:08:03.028Z,99.00
2023-01-21T03:10:57.244Z,99.20
2023-01-21T03:13:49.705Z,99.60
2023-01-21T03:16:39.771Z,99.90
2023-01-21T03:19:14.078Z,99.90
2023-01-21T03:21:45.405Z,99.90
2023-01-21T03:24:16.517Z,99.90
2023-01-21T03:26:49.897Z,99.90
2023-01-21T03:29:22.847Z,99.90
2023-01-21T03:31:55.396Z,99.90
2023-01-21T03:34:28.311Z,99.90
2023-01-21T03:37:03.028Z,99.90
2023-01-21T03:39:42.957Z,99.90
2023-01-21T03:42:30.919Z,99.90
2023-01-21T03:45:00.250Z,99.90
2023-01-21T03:47:33.188Z,99.90
2023-01-21T03:50:07.021Z,99.90
2023-01-21T03:52:41.093Z,99.90
2023-01-21T03:55:12.131Z,99.90
2023-01-21T03:57:41.406Z,99.90
2023-01-21T04:00:11.698Z,99.90
2023-01-21T04:02:40.709Z,99.90
2023-01-21T04:05:10.428Z,99.90
2023-01-21T04:07:40.965Z,99.90
2023-01-21T04:10:11.488Z,99.90
2023-01-21T04:12:40.909Z,99.90
2023-01-21T04:15:11.452Z,99.90
2023-01-21T04:17:40.787Z,99.90
2023-01-21T04:20:10.981Z,99.90
2023-01-21T04:22:41.506Z,99.90
2023-01-21T04:25:11.895Z,99.90
2023-01-21T04:27:41.214Z,99.90
2023-01-21T04:30:11.638Z,99.90
2023-01-21T04:32:40.708Z,99.90
2023-01-21T04:35:10.364Z,99.90
2023-01-21T04:37:40.909Z,99.90
2023-01-21T04:40:11.286Z,99.90
2023-01-21T04:42:40.677Z,99.90
2023-01-21T04:45:10.656Z,99.90
2023-01-21T04:47:43.107Z,99.90
2023-01-21T04:50:13.646Z,99.90
2023-01-21T04:52:44.616Z,99.90
2023-01-21T04:55:14.055Z,99.90
2023-01-21T04:57:43.090Z,99.90
2023-01-21T05:00:13.148Z,99.90
2023-01-21T05:02:42.196Z,99.90
2023-01-21T05:05:11.681Z,99.90
2023-01-21T05:07:40.547Z,99.90
2023-01-21T05:10:16.764Z,99.90
2023-01-21T05:12:46.017Z,99.90
2023-01-21T05:15:14.988Z,99.90
2023-01-21T05:17:44.373Z,99.90
2023-01-21T05:20:13.827Z,99.90
2023-01-21T05:22:42.689Z,99.90
2023-01-21T05:25:13.152Z,99.90
2023-01-21T05:27:42.933Z,99.90
2023-01-21T05:30:13.061Z,99.90
2023-01-21T05:32:42.095Z,99.90
2023-01-21T05:35:14.107Z,99.90
2023-01-21T05:37:43.211Z,99.90
2023-01-21T05:40:15.168Z,99.90
2023-01-21T05:42:44.832Z,99.90
2023-01-21T05:45:13.996Z,99.90
2023-01-21T05:47:42.916Z,99.90
2023-01-21T05:50:13.355Z,99.90
2023-01-21T05:52:42.566Z,99.90
2023-01-21T05:55:13.096Z,99.90
2023-01-21T05:57:42.187Z,99.90
2023-01-21T06:00:12.660Z,99.90
2023-01-21T06:02:41.792Z,99.90
2023-01-21T06:05:11.077Z,99.90
2023-01-21T06:07:40.185Z,99.90
2023-01-21T06:10:10.536Z,99.90
2023-01-21T06:12:41.225Z,99.90
2023-01-21T06:15:11.093Z,99.90
2023-01-21T06:17:58.831Z,99.90
2023-01-21T06:20:29.770Z,99.90
2023-01-21T06:23:17.348Z,99.90
2023-01-21T06:25:46.338Z,99.90
2023-01-21T06:28:16.885Z,99.90
2023-01-21T06:30:46.355Z,99.90
2023-01-21T06:33:15.321Z,99.90
2023-01-21T06:35:44.261Z,99.90
2023-01-21T06:38:13.312Z,99.90
2023-01-21T06:40:42.471Z,99.90
2023-01-21T06:43:11.508Z,99.90
2023-01-21T06:45:42.028Z,99.90
2023-01-21T06:48:11.234Z,99.90
2023-01-21T06:50:40.116Z,99.90
2023-01-21T06:53:09.164Z,99.90
2023-01-21T06:55:38.124Z,99.90
2023-01-21T06:58:07.133Z,98.50
2023-01-21T07:00:36.104Z,97.70
2023-01-21T07:03:06.574Z,97.00
2023-01-21T07:05:35.758Z,96.40
2023-01-21T07:08:05.787Z,95.90
2023-01-21T07:10:34.665Z,95.40
2023-01-21T07:13:03.839Z,95.20
2023-01-21T07:15:32.686Z,95.80
2023-01-21T07:18:01.640Z,96.10
2023-01-21T07:20:32.073Z,96.40
2023-01-21T07:23:01.050Z,96.80
2023-01-21T07:25:29.935Z,97.10
2023-01-21T07:27:58.893Z,97.40
2023-01-21T07:30:28.202Z,97.70
2023-01-21T07:32:57.177Z,97.90
2023-01-21T07:35:26.339Z,98.20
2023-01-21T07:37:56.741Z,98.30
2023-01-21T07:40:25.673Z,98.30
2023-01-21T07:42:55.131Z,98.50
2023-01-21T07:45:24.603Z,98.50
2023-01-21T07:47:53.721Z,98.60
2023-01-21T07:50:22.897Z,98.80
2023-01-21T07:52:51.817Z,99.10
2023-01-21T07:55:22.462Z,98.90
2023-01-21T07:57:51.724Z,99.10
2023-01-21T08:00:21.492Z,98.80
2023-01-21T08:02:54.227Z,98.50
2023-01-21T08:05:24.321Z,98.40
2023-01-21T08:07:54.131Z,98.20
2023-01-21T08:10:24.457Z,98.50
2023-01-21T08:12:53.503Z,99.10
2023-01-21T08:15:22.734Z,99.00
2023-01-21T08:17:51.644Z,98.80
2023-01-21T08:20:20.766Z,98.80
2023-01-21T08:22:49.768Z,98.80
2023-01-21T08:25:19.001Z,98.40
2023-01-21T08:27:49.516Z,97.90
2023-01-21T08:30:19.267Z,97.50
2023-01-21T08:32:48.117Z,97.30
2023-01-21T08:35:36.276Z,97.50
2023-01-21T08:38:05.300Z,98.00
2023-01-21T08:40:34.291Z,98.10
2023-01-21T08:43:07.365Z,97.60
2023-01-21T08:45:36.442Z,97.60
2023-01-21T08:48:05.872Z,99.90
2023-01-21T08:50:34.819Z,99.90
2023-01-21T08:53:03.726Z,99.50
2023-01-21T08:55:32.796Z,98.70
2023-01-21T08:58:01.805Z,99.90
2023-01-21T09:00:32.427Z,98.60
2023-01-21T09:03:01.830Z,98.80
2023-01-21T09:05:30.770Z,98.30
2023-01-21T09:07:59.806Z,96.40
2023-01-21T09:10:46.388Z,92.90
2023-01-21T09:13:16.640Z,87.00
2023-01-21T09:15:47.246Z,80.70
2023-01-21T09:18:16.967Z,75.00
2023-01-21T09:20:46.616Z,66.40
2023-01-21T09:23:28.339Z,61.10
2023-01-21T09:26:04.926Z,60.20
2023-01-21T09:28:35.622Z,59.10
2023-01-21T09:31:25.485Z,57.10
2023-01-21T09:33:56.612Z,55.20
2023-01-21T09:36:43.758Z,56.20
2023-01-21T09:39:12.807Z,53.10
2023-01-21T09:41:45.798Z,51.30
2023-01-21T09:44:20.657Z,52.50
2023-01-21T09:46:57.756Z,53.60
2023-01-21T09:49:30.045Z,53.80
2023-01-21T09:52:07.255Z,52.40
2023-01-21T09:54:37.828Z,50.70
2023-01-21T09:57:31.479Z,49.20
2023-01-21T10:00:09.975Z,49.20
2023-01-21T10:02:50.383Z,48.10
2023-01-21T10:05:42.360Z,48.20
2023-01-21T10:08:20.628Z,48.30
2023-01-21T10:10:52.931Z,45.70
2023-01-21T10:13:42.641Z,44.00
2023-01-21T10:16:17.644Z,43.40
2023-01-21T10:18:51.873Z,41.40
2023-01-21T10:21:30.818Z,40.90
2023-01-21T10:24:04.593Z,40.90
2023-01-21T10:26:36.162Z,41.30
2023-01-21T10:29:05.499Z,41.40
2023-01-21T10:31:40.906Z,41.30
2023-01-21T10:34:16.897Z,41.30
2023-01-21T10:36:58.833Z,41.10
2023-01-21T10:39:40.583Z,38.90
2023-01-21T10:42:24.213Z,38.10
2023-01-21T10:45:00.534Z,37.40
2023-01-21T10:47:37.340Z,37.30
2023-01-21T10:50:26.462Z,37.90
2023-01-21T10:53:01.831Z,37.70
2023-01-21T10:55:42.491Z,38.10
2023-01-21T10:58:19.852Z,38.30
2023-01-21T11:00:51.532Z,38.40
2023-01-21T11:03:31.808Z,39.40
2023-01-21T11:06:04.573Z,40.40
2023-01-21T11:08:34.408Z,40.70
2023-01-21T11:11:04.614Z,40.80
2023-01-21T11:13:33.939Z,41.10
2023-01-21T11:16:04.756Z,41.80
2023-01-21T11:18:37.390Z,42.60
2023-01-21T11:21:19.159Z,43.40
2023-01-21T11:23:56.114Z,44.20
2023-01-21T11:26:29.042Z,44.90
2023-01-21T11:29:14.412Z,45.20
2023-01-21T11:31:45.549Z,45.30
2023-01-21T11:34:17.646Z,45.80
2023-01-21T11:37:02.446Z,45.90
2023-01-21T11:39:33.616Z,46.20
2023-01-21T11:42:08.289Z,46.40
2023-01-21T11:44:37.894Z,47.00
2023-01-21T11:47:29.924Z,47.50
2023-01-21T11:50:10.931Z,48.20
2023-01-21T11:52:41.574Z,48.60
2023-01-21T11:55:23.177Z,49.10
2023-01-21T11:57:54.731Z,49.60
2023-01-21T12:00:27.265Z,50.20
2023-01-21T12:02:59.289Z,50.50
2023-01-21T12:05:33.718Z,50.70
2023-01-21T12:08:06.013Z,50.70
2023-01-21T12:10:38.282Z,50.50
2023-01-21T12:13:22.119Z,50.10
2023-01-21T12:16:12.856Z,49.90
2023-01-21T12:18:59.772Z,49.70
2023-01-21T12:21:40.848Z,49.30
2023-01-21T12:24:26.817Z,48.90
2023-01-21T12:27:05.696Z,48.50
2023-01-21T12:29:51.019Z,48.60
2023-01-21T12:32:25.389Z,48.70
2023-01-21T12:35:00.127Z,48.80
2023-01-21T12:37:34.514Z,48.70
2023-01-21T12:40:16.552Z,49.10
2023-01-21T12:42:50.075Z,49.30
2023-01-21T12:45:23.049Z,49.60
2023-01-21T12:48:17.291Z,49.80
2023-01-21T12:50:52.603Z,49.80
2023-01-21T12:53:28.386Z,50.00
2023-01-21T12:56:27.782Z,50.40
2023-01-21T12:59:02.136Z,50.90
2023-01-21T13:01:50.499Z,50.50
2023-01-21T13:04:31.942Z,49.90
2023-01-21T13:07:06.042Z,49.90
2023-01-21T13:09:42.769Z,49.80
2023-01-21T13:12:19.995Z,49.30
2023-01-21T13:14:54.251Z,49.30
2023-01-21T13:17:26.683Z,49.30
2023-01-21T13:19:55.887Z,49.00
2023-01-21T13:22:36.755Z,48.80
2023-01-21T13:25:19.851Z,48.30
2023-01-21T13:27:59.548Z,48.10
2023-01-21T13:30:36.883Z,47.70
2023-01-21T13:33:29.403Z,47.50
2023-01-21T13:36:20.282Z,47.30
2023-01-21T13:38:56.382Z,47.40
2023-01-21T13:41:37.537Z,47.40
2023-01-21T13:44:41.493Z,47.60
2023-01-21T13:47:22.468Z,48.00
2023-01-21T13:50:29.842Z,48.30
2023-01-21T13:53:34.100Z,48.50
2023-01-21T13:56:20.530Z,48.80
2023-01-21T13:58:53.806Z,48.90
2023-01-21T14:01:29.558Z,49.20
2023-01-21T14:04:04.666Z,49.20
2023-01-21T14:06:40.376Z,49.10
2023-01-21T14:09:15.257Z,49.20
2023-01-21T14:11:48.421Z,49.30
2023-01-21T14:14:48.306Z,49.30
2023-01-21T14:17:42.565Z,49.40
2023-01-21T14:20:31.609Z,49.50
2023-01-21T14:23:19.886Z,49.20
2023-01-21T14:26:02.284Z,49.00
2023-01-21T14:28:36.280Z,49.00
2023-01-21T14:31:11.593Z,48.80
2023-01-21T14:33:45.800Z,48.70
2023-01-21T14:36:21.288Z,48.90
2023-01-21T14:38:58.910Z,49.20
2023-01-21T14:42:02.789Z,49.10
2023-01-21T14:44:41.070Z,49.50
2023-01-21T14:47:19.615Z,49.50
2023-01-21T14:49:52.092Z,49.60
2023-01-21T14:52:23.349Z,49.90
2023-01-21T14:54:52.372Z,50.30
2023-01-21T14:57:27.018Z,50.60
2023-01-21T15:00:04.112Z,51.00
2023-01-21T15:02:35.811Z,51.40
2023-01-21T15:05:18.581Z,51.60
2023-01-21T15:07:51.209Z,52.00
2023-01-21T15:10:22.889Z,52.20
2023-01-21T15:12:55.168Z,52.50
2023-01-21T15:15:31.136Z,52.80
2023-01-21T15:18:06.033Z,53.00
2023-01-21T15:20:51.424Z,53.20
2023-01-21T15:23:28.764Z,53.60
2023-01-21T15:26:19.369Z,53.80
2023-01-21T15:28:49.782Z,54.20
2023-01-21T15:31:48.800Z,54.30
2023-01-21T15:34:21.169Z,54.40
2023-01-21T15:36:58.172Z,54.50
2023-01-21T15:39:33.921Z,54.80
2023-01-21T15:42:16.099Z,55.00
2023-01-21T15:44:54.855Z,55.20
2023-01-21T15:47:51.973Z,55.30
2023-01-21T15:50:23.829Z,55.60
2023-01-21T15:53:40.991Z,55.80
2023-01-21T15:56:34.834Z,56.20
2023-01-21T15:59:16.889Z,56.70
2023-01-21T16:01:47.160Z,57.00
2023-01-21T16:04:33.243Z,57.20
2023-01-21T16:07:17.652Z,57.70
2023-01-21T16:10:01.464Z,57.90
2023-01-21T16:12:40.200Z,58.30
2023-01-21T16:15:19.983Z,58.60
2023-01-21T16:18:04.278Z,58.80
2023-01-21T16:20:33.817Z,59.20
2023-01-21T16:23:06.295Z,59.50
2023-01-21T16:25:47.925Z,59.80
2023-01-21T16:28:18.034Z,60.10
2023-01-21T16:30:56.307Z,60.30
2023-01-21T16:33:25.931Z,60.90
2023-01-21T16:35:58.467Z,61.10
2023-01-21T16:38:30.242Z,61.50
2023-01-21T16:41:24.253Z,61.80
2023-01-21T16:43:59.219Z,62.10
2023-01-21T16:46:34.798Z,62.20
2023-01-21T16:49:07.968Z,62.50
2023-01-21T16:51:38.768Z,62.90
2023-01-21T16:54:26.446Z,63.10
2023-01-21T16:56:59.858Z,63.60
2023-01-21T16:59:31.269Z,63.90
2023-01-21T17:02:01.806Z,64.50
2023-01-21T17:04:31.449Z,64.80
2023-01-21T17:07:00.755Z,65.20
2023-01-21T17:09:33.366Z,65.50
2023-01-21T17:12:09.177Z,65.80
2023-01-21T17:14:41.379Z,66.10
2023-01-21T17:17:11.300Z,66.40
2023-01-21T17:19:44.164Z,66.90
2023-01-21T17:22:16.609Z,67.10
2023-01-21T17:25:03.270Z,67.40
2023-01-21T17:27:34.876Z,67.00
2023-01-21T17:30:28.636Z,67.30
2023-01-21T17:32:59.895Z,67.90
2023-01-21T17:35:31.940Z,68.00
2023-01-21T17:38:30.848Z,68.20
2023-01-21T17:41:03.945Z,68.50
2023-01-21T17:43:36.369Z,68.70
2023-01-21T17:46:09.322Z,68.90
2023-01-21T17:48:41.866Z,69.00
2023-01-21T17:51:16.016Z,69.00
2023-01-21T17:53:53.188Z,69.10
2023-01-21T17:56:38.079Z,69.40
2023-01-21T17:59:37.812Z,69.70
2023-01-21T18:02:11.643Z,70.10
2023-01-21T18:05:00.057Z,70.30
2023-01-21T18:07:35.806Z,70.40
2023-01-21T18:10:05.628Z,70.60
2023-01-21T18:12:35.770Z,70.90
2023-01-21T18:15:07.445Z,71.10
2023-01-21T18:17:37.869Z,71.30
2023-01-21T18:20:17.224Z,71.50
2023-01-21T18:22:47.681Z,71.80
2023-01-21T18:25:18.227Z,71.90
2023-01-21T18:28:08.540Z,72.20
2023-01-21T18:30:39.759Z,72.40
2023-01-21T18:33:11.844Z,72.80
2023-01-21T18:35:44.363Z,72.90
2023-01-21T18:38:33.671Z,73.20
2023-01-21T18:41:02.858Z,73.30
2023-01-21T18:43:31.879Z,73.20
2023-01-21T18:46:03.047Z,73.30
2023-01-21T18:48:33.601Z,73.30
2023-01-21T18:51:02.754Z,73.40
2023-01-21T18:53:33.712Z,73.70
2023-01-21T18:56:05.392Z,73.70
2023-01-21T18:58:34.936Z,73.40
2023-01-21T19:01:13.987Z,73.20
2023-01-21T19:03:47.113Z,73.10
2023-01-21T19:06:18.338Z,73.00
2023-01-21T19:08:48.887Z,73.20
2023-01-21T19:11:18.297Z,73.40
2023-01-21T19:13:47.339Z,73.70
2023-01-21T19:16:20.799Z,74.00
2023-01-21T19:18:50.196Z,74.20
2023-01-21T19:21:19.210Z,74.50
2023-01-21T19:23:48.930Z,74.60
2023-01-21T19:26:18.685Z,74.80
2023-01-21T19:28:48.532Z,74.80
2023-01-21T19:31:19.226Z,75.10
2023-01-21T19:33:48.432Z,75.30
2023-01-21T19:36:22.984Z,75.50
2023-01-21T19:38:56.317Z,75.80
2023-01-21T19:41:26.046Z,76.30
2023-01-21T19:43:55.406Z,76.70
2023-01-21T19:46:29.153Z,77.20
2023-01-21T19:49:00.075Z,77.30
2023-01-21T19:51:32.026Z,77.60
2023-01-21T19:54:01.428Z,77.80
2023-01-21T19:56:30.504Z,77.90
2023-01-21T19:59:00.078Z,78.10
2023-01-21T20:01:30.680Z,78.30
2023-01-21T20:04:00.925Z,78.80
2023-01-21T20:06:35.261Z,78.90
2023-01-21T20:09:04.596Z,78.50
2023-01-21T20:11:33.808Z,78.60
2023-01-21T20:14:02.713Z,78.60
2023-01-21T20:16:34.588Z,78.60
2023-01-21T20:19:04.098Z,78.90
2023-01-21T20:21:33.083Z,79.00
2023-01-21T20:24:02.091Z,79.10
2023-01-21T20:26:31.025Z,79.20
2023-01-21T20:29:02.597Z,79.40
2023-01-21T20:31:33.107Z,79.40
2023-01-21T20:34:02.606Z,79.60
2023-01-21T20:36:32.423Z,79.70
2023-01-21T20:39:02.070Z,80.00
2023-01-21T20:41:31.371Z,80.20
2023-01-21T20:44:03.700Z,80.40
2023-01-21T20:46:35.384Z,80.50
2023-01-21T20:49:04.612Z,80.60
2023-01-21T20:51:33.603Z,80.60
2023-01-21T20:54:02.680Z,80.70
2023-01-21T20:56:33.448Z,80.90
2023-01-21T20:59:03.462Z,80.90
2023-01-21T21:01:35.096Z,81.00
2023-01-21T21:04:04.563Z,81.50
2023-01-21T21:06:33.875Z,81.70
2023-01-21T21:09:02.844Z,81.80
2023-01-21T21:11:31.951Z,82.10
2023-01-21T21:14:02.072Z,82.40
2023-01-21T21:16:32.321Z,82.80
2023-01-21T21:19:03.970Z,83.00
2023-01-21T21:21:33.013Z,83.00
2023-01-21T21:24:02.502Z,83.10
2023-01-21T21:26:33.449Z,83.20
2023-01-21T21:29:21.152Z,83.30
2023-01-21T21:31:50.186Z,83.70
2023-01-21T21:34:24.050Z,83.90
2023-01-21T21:36:53.068Z,84.00
2023-01-21T21:39:22.333Z,84.10
2023-01-21T21:42:08.636Z,84.30
2023-01-21T21:44:39.142Z,84.50
2023-01-21T21:47:27.881Z,84.60
2023-01-21T21:49:58.417Z,84.70
2023-01-21T21:52:27.708Z,84.70
2023-01-21T21:54:57.655Z,85.00
2023-01-21T21:57:26.966Z,85.20
2023-01-21T21:59:56.124Z,85.30
2023-01-21T22:02:25.588Z,85.40
2023-01-21T22:04:55.325Z,85.40
2023-01-21T22:07:26.073Z,85.40
2023-01-21T22:09:55.145Z,85.60
2023-01-21T22:12:24.533Z,85.60
2023-01-21T22:14:53.645Z,85.80
2023-01-21T22:17:22.830Z,86.00
2023-01-21T22:19:51.950Z,86.30
2023-01-21T22:22:21.314Z,86.50
2023-01-21T22:24:54.375Z,86.80
2023-01-21T22:27:24.571Z,87.10
2023-01-21T22:29:53.831Z,88.40
2023-01-21T22:32:22.808Z,88.50
2023-01-21T22:34:51.837Z,88.80
2023-01-21T22:37:20.898Z,89.10
2023-01-21T22:39:51.370Z,89.10
2023-01-21T22:42:20.353Z,89.30
2023-01-21T22:44:49.249Z,89.60
2023-01-21T22:47:18.267Z,89.90
2023-01-21T22:49:49.419Z,90.00
2023-01-21T22:52:18.452Z,90.10
2023-01-21T22:54:49.520Z,90.20
2023-01-21T22:57:20.697Z,90.20
2023-01-21T23:00:12.127Z,90.40
2023-01-21T23:02:41.041Z,90.40
2023-01-21T23:05:10.667Z,90.50
2023-01-21T23:07:39.692Z,90.50
2023-01-21T23:10:11.490Z,90.50
2023-01-21T23:12:43.485Z,90.60
2023-01-21T23:15:12.628Z,90.70
2023-01-21T23:17:41.575Z,90.90
2023-01-21T23:20:11.846Z,91.10
2023-01-21T23:22:41.039Z,91.20
2023-01-21T23:25:11.786Z,91.30
2023-01-21T23:27:42.473Z,91.40
2023-01-21T23:30:12.666Z,91.60
2023-01-21T23:33:00.540Z,91.90
2023-01-21T23:35:30.040Z,92.10
2023-01-21T23:37:59.129Z,92.30
2023-01-21T23:40:28.205Z,92.40
2023-01-21T23:42:58.628Z,92.60
2023-01-21T23:45:27.937Z,92.70
2023-01-21T23:47:57.020Z,92.70
2023-01-21T23:50:26.147Z,92.80
2023-01-21T23:52:56.499Z,92.90
2023-01-21T23:55:25.588Z,93.10
2023-01-21T23:57:54.548Z,93.10
